Time;durP1;ratioP1;P1;durP2;ratioP2;P2;SDS_P1;SDS_P2;PMS_P1;PMS_P2;Temp;Humidity;BMP_temperature;BMP_pressure;BME280_temperature;BME280_humidity;BME280_pressure;Samples;Min_cycle;Max_cycle;Signal;HPM_P1;HPM_P2
2021/06/20 00:00:00;;;;;;;0.17;0.17;;;17.10;81.20;;;;;;5031189;28;20124;-67
2021/06/20 00:02:27;;;;;;;0.28;0.28;;;17.10;81.20;;;;;;5031813;28;20075;-68
2021/06/20 00:04:53;;;;;;;0.30;0.30;;;17.20;81.20;;;;;;5038978;28;20056;-68
2021/06/20 00:07:19;;;;;;;0.30;0.30;;;17.20;81.20;;;;;;5031380;28;20049;-68
2021/06/20 00:09:46;;;;;;;0.30;0.30;;;17.20;81.30;;;;;;5031554;28;20096;-68
2021/06/20 00:12:12;;;;;;;1.08;0.30;;;17.20;81.20;;;;;;5034130;28;20041;-68
2021/06/20 00:14:38;;;;;;;0.40;0.40;;;17.20;81.00;;;;;;5031480;28;20045;-68
2021/06/20 00:17:05;;;;;;;0.30;0.30;;;17.20;80.70;;;;;;5036000;28;20046;-68
2021/06/20 00:19:31;;;;;;;0.60;0.40;;;17.20;81.00;;;;;;5043980;28;20564;-68
2021/06/20 00:21:57;;;;;;;0.20;0.20;;;17.20;80.90;;;;;;5031062;28;20172;-68
2021/06/20 00:24:23;;;;;;;0.20;0.20;;;17.20;80.80;;;;;;5027508;28;20080;-68
2021/06/20 00:26:50;;;;;;;0.22;0.22;;;17.20;80.70;;;;;;5031346;28;20414;-68
2021/06/20 00:29:16;;;;;;;0.30;0.30;;;17.20;80.70;;;;;;5033611;28;20127;-68
2021/06/20 00:31:42;;;;;;;0.20;0.20;;;17.20;80.70;;;;;;5041275;28;20092;-68
2021/06/20 00:34:09;;;;;;;0.20;0.20;;;17.30;80.80;;;;;;5031593;28;20140;-68
2021/06/20 00:36:35;;;;;;;0.15;0.15;;;17.30;80.40;;;;;;5031330;28;20046;-68
2021/06/20 00:39:02;;;;;;;0.43;0.40;;;17.30;80.10;;;;;;5031122;28;20456;-67
2021/06/20 00:41:29;;;;;;;0.15;0.13;;;17.20;81.20;;;;;;5030903;28;20053;-67
2021/06/20 00:43:55;;;;;;;0.38;0.38;;;17.20;80.40;;;;;;5031292;28;20065;-67
2021/06/20 00:46:21;;;;;;;0.30;0.20;;;17.20;80.30;;;;;;5013595;28;20172;-67
2021/06/20 00:48:47;;;;;;;0.10;0.10;;;17.20;80.60;;;;;;5013282;28;20497;-67
2021/06/20 00:51:14;;;;;;;0.17;0.10;;;17.20;80.60;;;;;;5031162;28;20447;-67
2021/06/20 00:53:40;;;;;;;0.30;0.30;;;17.30;80.50;;;;;;5030890;28;20099;-67
2021/06/20 00:56:06;;;;;;;0.20;0.20;;;17.30;80.10;;;;;;5030759;28;20172;-67
2021/06/20 00:58:33;;;;;;;0.20;0.20;;;17.30;80.20;;;;;;5031146;28;20136;-67
2021/06/20 01:01:00;;;;;;;0.38;0.20;;;17.20;80.00;;;;;;5031240;28;20049;-67
2021/06/20 01:03:26;;;;;;;0.30;0.30;;;17.20;80.10;;;;;;5012902;28;20088;-67
2021/06/20 01:05:54;;;;;;;0.40;0.40;;;17.10;79.90;;;;;;5031220;28;20052;-67
2021/06/20 01:08:21;;;;;;;0.57;0.32;;;17.10;80.10;;;;;;5032631;28;20096;-68
2021/06/20 01:10:48;;;;;;;0.20;0.20;;;17.10;80.70;;;;;;5016786;28;20089;-68
2021/06/20 01:13:17;;;;;;;0.03;0.03;;;17.10;80.80;;;;;;5035358;28;20559;-67
2021/06/20 01:15:49;;;;;;;0.30;0.30;;;17.10;80.70;;;;;;5034941;28;20057;-67
2021/06/20 01:18:17;;;;;;;0.13;0.13;;;17.20;80.70;;;;;;5034966;28;20046;-68
2021/06/20 01:20:44;;;;;;;0.55;0.40;;;17.20;80.40;;;;;;5034452;28;20037;-67
2021/06/20 01:23:11;;;;;;;0.45;0.20;;;17.20;80.30;;;;;;5034353;28;20413;-68
2021/06/20 01:25:40;;;;;;;0.20;0.20;;;17.20;80.30;;;;;;5034492;28;20096;-70
2021/06/20 01:28:09;;;;;;;0.28;0.28;;;17.20;80.20;;;;;;5034645;28;20493;-68
2021/06/20 01:30:40;;;;;;;0.37;0.37;;;17.10;80.20;;;;;;5034361;28;20120;-68
2021/06/20 01:33:09;;;;;;;0.20;0.20;;;17.20;80.30;;;;;;5034265;28;20599;-68
2021/06/20 01:35:36;;;;;;;0.43;0.38;;;17.20;80.30;;;;;;5034820;28;20109;-68
2021/06/20 01:38:05;;;;;;;1.00;0.50;;;17.20;80.30;;;;;;5034081;28;20049;-68
2021/06/20 01:40:32;;;;;;;0.70;0.30;;;17.10;80.00;;;;;;5034224;28;20519;-68
2021/06/20 01:42:59;;;;;;;0.30;0.30;;;17.00;80.40;;;;;;5033808;28;20057;-68
2021/06/20 01:45:27;;;;;;;0.65;0.40;;;16.80;82.10;;;;;;5034410;28;20501;-68
2021/06/20 01:47:55;;;;;;;0.65;0.38;;;16.70;81.70;;;;;;5016703;28;20424;-68
2021/06/20 01:50:22;;;;;;;0.52;0.30;;;16.60;82.10;;;;;;5033981;28;20128;-67
2021/06/20 01:53:12;;;;;;;0.40;0.40;;;16.50;82.50;;;;;;5033682;28;20111;-67
2021/06/20 01:55:41;;;;;;;0.93;0.50;;;16.30;83.20;;;;;;5034376;28;20041;-68
2021/06/20 01:58:09;;;;;;;0.47;0.47;;;16.30;83.60;;;;;;5033736;28;20574;-67
2021/06/20 02:00:37;;;;;;;0.70;0.22;;;16.20;83.80;;;;;;5033946;28;20048;-67
2021/06/20 02:03:16;;;;;;;0.30;0.30;;;16.20;83.80;;;;;;5033556;28;20052;-67
2021/06/20 02:05:44;;;;;;;0.60;0.50;;;16.20;84.00;;;;;;5034176;28;20176;-68
2021/06/20 02:08:12;;;;;;;0.40;0.40;;;16.20;84.20;;;;;;5033722;28;20049;-68
2021/06/20 02:10:40;;;;;;;0.30;0.30;;;16.10;84.30;;;;;;5033452;28;20088;-68
2021/06/20 02:13:06;;;;;;;0.65;0.30;;;16.10;84.60;;;;;;5033704;28;20490;-69
2021/06/20 02:15:33;;;;;;;0.40;0.40;;;16.10;84.60;;;;;;5033702;28;20045;-68
2021/06/20 02:18:00;;;;;;;0.38;0.38;;;16.10;84.80;;;;;;5033728;28;20124;-68
2021/06/20 02:20:26;;;;;;;0.55;0.50;;;16.00;84.60;;;;;;5033158;28;20128;-68
2021/06/20 02:22:53;;;;;;;0.43;0.40;;;16.10;84.70;;;;;;5033128;28;20509;-67
2021/06/20 02:25:22;;;;;;;0.45;0.45;;;16.10;84.80;;;;;;5033671;28;20103;-67
2021/06/20 02:27:53;;;;;;;0.40;0.40;;;16.10;84.60;;;;;;5033338;28;20620;-67
2021/06/20 02:30:21;;;;;;;0.20;0.20;;;16.10;85.40;;;;;;5033512;28;20136;-68
2021/06/20 02:32:52;;;;;;;0.35;0.30;;;16.00;84.90;;;;;;5033090;28;20096;-67
2021/06/20 02:35:18;;;;;;;;;;;16.00;85.10;;;;;;5034066;28;20375;-67
2021/06/20 02:37:46;;;;;;;0.40;0.40;;;16.00;85.20;;;;;;5033335;28;20015;-67
2021/06/20 02:40:13;;;;;;;0.70;0.45;;;16.00;85.20;;;;;;5033446;28;20045;-67
2021/06/20 02:42:40;;;;;;;0.40;0.40;;;16.00;85.30;;;;;;5032438;28;20516;-67
2021/06/20 02:45:09;;;;;;;0.60;0.43;;;16.00;85.60;;;;;;5031798;28;20056;-67
2021/06/20 02:47:36;;;;;;;0.68;0.40;;;16.00;85.60;;;;;;5032985;28;20510;-68
2021/06/20 02:50:04;;;;;;;1.08;0.60;;;16.00;85.60;;;;;;5032905;28;20133;-68
2021/06/20 02:52:31;;;;;;;0.60;0.40;;;16.00;85.80;;;;;;5032617;28;20049;-67
2021/06/20 02:54:59;;;;;;;0.47;0.40;;;16.00;86.00;;;;;;5033148;28;20085;-67
2021/06/20 02:57:31;;;;;;;0.60;0.60;;;15.90;86.20;;;;;;5032468;28;20897;-67
2021/06/20 03:00:01;;;;;;;0.45;0.30;;;15.90;86.10;;;;;;5032932;28;20576;-67
2021/06/20 03:02:28;;;;;;;0.30;0.20;;;16.00;86.10;;;;;;5032715;28;20175;-68
2021/06/20 03:05:01;;;;;;;0.50;0.47;;;16.00;85.90;;;;;;5032986;28;20046;-68
2021/06/20 03:07:32;;;;;;;0.43;0.43;;;16.00;86.00;;;;;;5032539;28;20052;-68
2021/06/20 03:10:07;;;;;;;0.43;0.43;;;15.90;85.80;;;;;;5032590;28;20528;-67
2021/06/20 03:12:41;;;;;;;0.65;0.47;;;15.90;85.70;;;;;;5032405;28;20100;-68
2021/06/20 03:15:15;;;;;;;0.52;0.52;;;15.90;86.20;;;;;;5032715;28;20045;-68
2021/06/20 03:17:48;;;;;;;0.77;0.60;;;15.80;86.40;;;;;;5031988;28;20500;-68
2021/06/20 03:20:25;;;;;;;0.50;0.43;;;15.90;86.40;;;;;;5032439;28;20164;-68
2021/06/20 03:22:57;;;;;;;0.55;0.40;;;15.80;86.20;;;;;;5031977;28;20398;-68
2021/06/20 03:25:31;;;;;;;0.65;0.47;;;15.80;86.20;;;;;;5032708;28;20425;-68
2021/06/20 03:28:06;;;;;;;1.17;0.65;;;15.80;86.50;;;;;;5031954;28;20545;-68
2021/06/20 03:30:42;;;;;;;0.60;0.45;;;15.80;86.70;;;;;;5031784;28;20053;-68
2021/06/20 03:33:12;;;;;;;0.77;0.43;;;15.80;86.70;;;;;;5032130;28;20428;-68
2021/06/20 03:35:41;;;;;;;1.30;0.65;;;15.70;86.70;;;;;;5032375;28;20049;-68
2021/06/20 03:38:08;;;;;;;0.47;0.28;;;15.80;86.70;;;;;;5031633;28;20041;-68
2021/06/20 03:40:36;;;;;;;0.88;0.60;;;15.70;86.80;;;;;;5032208;28;20046;-68
2021/06/20 03:43:05;;;;;;;0.30;0.30;;;15.70;87.00;;;;;;5014206;28;20050;-67
2021/06/20 03:45:33;;;;;;;0.40;0.40;;;15.70;87.20;;;;;;5032298;28;20484;-68
2021/06/20 03:48:02;;;;;;;0.50;0.35;;;15.60;87.40;;;;;;5031939;28;20128;-68
2021/06/20 03:50:29;;;;;;;1.10;0.60;;;15.60;87.60;;;;;;5032223;28;20071;-68
2021/06/20 03:52:56;;;;;;;1.50;0.60;;;15.60;87.70;;;;;;5031805;28;20050;-68
2021/06/20 03:55:22;;;;;;;1.08;0.50;;;15.60;87.60;;;;;;5031679;28;20045;-68
2021/06/20 03:57:49;;;;;;;0.65;0.47;;;15.60;87.70;;;;;;5032102;28;20068;-67
2021/06/20 04:00:15;;;;;;;0.40;0.40;;;15.60;87.60;;;;;;5031770;28;20077;-68
2021/06/20 04:02:42;;;;;;;0.30;0.30;;;15.60;87.40;;;;;;5031401;28;20597;-68
2021/06/20 04:05:14;;;;;;;0.80;0.45;;;15.70;87.10;;;;;;5031328;28;20100;-68
2021/06/20 04:07:41;;;;;;;0.82;0.52;;;15.80;86.90;;;;;;5031924;28;20308;-68
2021/06/20 04:10:08;;;;;;;1.42;0.65;;;15.70;87.00;;;;;;5031397;28;20050;-68
2021/06/20 04:12:34;;;;;;;0.50;0.50;;;15.70;87.10;;;;;;5031692;28;20129;-68
2021/06/20 04:15:01;;;;;;;0.63;0.45;;;15.70;87.20;;;;;;5031696;28;20140;-68
2021/06/20 04:17:29;;;;;;;0.63;0.38;;;15.70;87.20;;;;;;5031497;28;20481;-68
2021/06/20 04:19:56;;;;;;;0.73;0.50;;;15.70;87.20;;;;;;5031464;28;20045;-68
2021/06/20 04:22:22;;;;;;;0.28;0.28;;;15.70;87.10;;;;;;5031214;28;20522;-68
2021/06/20 04:24:48;;;;;;;0.50;0.50;;;15.70;87.10;;;;;;5031916;28;20125;-68
2021/06/20 04:27:14;;;;;;;1.05;0.60;;;15.70;87.20;;;;;;5031527;28;20061;-68
2021/06/20 04:29:41;;;;;;;1.45;0.50;;;15.70;87.30;;;;;;5031342;28;20526;-68
2021/06/20 04:32:07;;;;;;;0.93;0.40;;;15.60;87.50;;;;;;5030900;28;20092;-68
2021/06/20 04:34:33;;;;;;;0.40;0.40;;;15.60;87.60;;;;;;5031063;28;20172;-68
2021/06/20 04:37:00;;;;;;;0.77;0.43;;;15.70;87.40;;;;;;5031668;28;20557;-68
2021/06/20 04:39:27;;;;;;;0.47;0.47;;;15.70;87.20;;;;;;5031282;28;20171;-68
2021/06/20 04:41:54;;;;;;;1.38;0.60;;;15.70;87.20;;;;;;5031393;28;20052;-68
2021/06/20 04:47:05;;;;;;;0.65;0.50;;;15.80;86.90;;;;;;5035373;28;20049;-68
2021/06/20 04:49:32;;;;;;;0.77;0.57;;;15.80;86.90;;;;;;5035350;28;20045;-68
2021/06/20 04:51:58;;;;;;;1.20;0.52;;;15.80;86.70;;;;;;5035367;28;20076;-68
2021/06/20 04:54:24;;;;;;;1.05;0.47;;;15.80;86.90;;;;;;5034289;28;20477;-68
2021/06/20 04:56:51;;;;;;;1.52;0.50;;;15.80;86.90;;;;;;5035341;28;20054;-68
2021/06/20 04:59:17;;;;;;;0.70;0.47;;;15.90;86.90;;;;;;5034772;28;20099;-68
2021/06/20 05:01:43;;;;;;;0.82;0.50;;;15.80;86.90;;;;;;5035111;28;20045;-68
2021/06/20 05:04:10;;;;;;;0.80;0.60;;;15.80;87.10;;;;;;5035417;28;20196;-68
2021/06/20 05:06:36;;;;;;;0.50;0.50;;;15.80;87.20;;;;;;5035197;28;20430;-68
2021/06/20 05:09:04;;;;;;;0.70;0.50;;;15.80;87.00;;;;;;5034939;28;20055;-68
2021/06/20 05:11:30;;;;;;;0.60;0.57;;;15.80;87.10;;;;;;5035210;28;20056;-68
2021/06/20 05:13:57;;;;;;;0.40;0.40;;;15.80;87.10;;;;;;5035074;28;20128;-68
2021/06/20 05:16:23;;;;;;;0.40;0.40;;;15.90;87.00;;;;;;5034492;28;20056;-67
2021/06/20 05:18:50;;;;;;;0.57;0.50;;;16.00;86.60;;;;;;5016626;28;20525;-68
2021/06/20 05:21:16;;;;;;;0.55;0.40;;;16.00;86.40;;;;;;5034845;28;20604;-67
2021/06/20 05:23:43;;;;;;;1.27;0.50;;;16.10;86.40;;;;;;5034681;28;20099;-68
2021/06/20 05:26:09;;;;;;;1.52;0.60;;;16.10;86.10;;;;;;5034484;28;20107;-68
2021/06/20 05:28:35;;;;;;;0.77;0.40;;;16.20;86.00;;;;;;5034758;28;20517;-68
2021/06/20 05:31:02;;;;;;;1.23;0.73;;;16.20;85.90;;;;;;5034174;28;20128;-68
2021/06/20 05:33:28;;;;;;;0.82;0.50;;;16.20;85.80;;;;;;5012888;28;20128;-68
2021/06/20 05:35:54;;;;;;;1.13;0.70;;;16.30;85.80;;;;;;5030903;28;20522;-68
2021/06/20 05:38:21;;;;;;;0.60;0.50;;;16.30;85.50;;;;;;5034696;28;20132;-68
2021/06/20 05:40:47;;;;;;;0.38;0.38;;;16.30;85.40;;;;;;5034338;28;20042;-67
2021/06/20 05:43:13;;;;;;;1.15;0.60;;;16.30;85.80;;;;;;5034565;28;20524;-67
2021/06/20 05:45:41;;;;;;;0.95;0.68;;;16.30;85.80;;;;;;5034341;28;20103;-67
2021/06/20 05:48:07;;;;;;;0.28;0.28;;;16.30;85.70;;;;;;5015970;28;20075;-68
2021/06/20 05:50:33;;;;;;;0.30;0.30;;;16.30;85.80;;;;;;5034217;28;20072;-68
2021/06/20 05:53:00;;;;;;;0.47;0.38;;;16.30;85.70;;;;;;5034128;28;20572;-68
2021/06/20 05:55:26;;;;;;;0.77;0.70;;;16.30;85.20;;;;;;5030403;28;20095;-67
2021/06/20 05:57:52;;;;;;;0.40;0.40;;;16.30;85.50;;;;;;5033930;28;20075;-68
2021/06/20 06:00:19;;;;;;;0.80;0.60;;;16.30;85.80;;;;;;5033426;28;20151;-68
2021/06/20 06:02:45;;;;;;;0.50;0.50;;;16.20;85.50;;;;;;5033978;28;20137;-68
2021/06/20 06:05:12;;;;;;;0.75;0.55;;;16.20;85.80;;;;;;5034004;28;20148;-68
2021/06/20 06:07:38;;;;;;;0.47;0.40;;;16.30;85.80;;;;;;5027659;28;20092;-68
2021/06/20 06:10:05;;;;;;;0.77;0.50;;;16.30;85.60;;;;;;5034041;28;20053;-68
2021/06/20 06:12:32;;;;;;;0.60;0.47;;;16.40;85.50;;;;;;5006783;28;20173;-68
2021/06/20 06:14:58;;;;;;;1.00;0.40;;;16.40;85.40;;;;;;5032847;28;20126;-67
2021/06/20 06:17:25;;;;;;;0.57;0.57;;;16.40;85.60;;;;;;5029177;28;20820;-68
2021/06/20 06:19:52;;;;;;;1.55;0.60;;;16.50;85.30;;;;;;5025843;28;20045;-68
2021/06/20 06:22:22;;;;;;;0.50;0.50;;;16.40;85.60;;;;;;5030155;28;20042;-68
2021/06/20 06:24:49;;;;;;;0.75;0.50;;;16.40;85.80;;;;;;5032984;28;20119;-68
2021/06/20 06:27:17;;;;;;;0.90;0.60;;;16.40;85.80;;;;;;5033217;28;20056;-68
2021/06/20 06:29:43;;;;;;;0.93;0.52;;;16.50;85.90;;;;;;5034080;28;20106;-68
2021/06/20 06:32:12;;;;;;;0.60;0.60;;;16.50;85.60;;;;;;5033884;28;20053;-68
2021/06/20 06:34:38;;;;;;;0.70;0.50;;;16.60;85.40;;;;;;5033251;28;20567;-68
2021/06/20 06:37:05;;;;;;;0.60;0.47;;;16.70;85.00;;;;;;5033731;28;20053;-68
2021/06/20 06:39:32;;;;;;;1.00;0.60;;;16.70;85.00;;;;;;5035254;28;20120;-68
2021/06/20 06:41:59;;;;;;;0.73;0.50;;;16.70;85.50;;;;;;5033579;28;20183;-68
2021/06/20 06:44:27;;;;;;;0.73;0.40;;;16.70;85.00;;;;;;5036392;28;20612;-68
2021/06/20 06:46:54;;;;;;;0.80;0.55;;;16.80;85.00;;;;;;5032700;28;20107;-68
2021/06/20 06:49:20;;;;;;;0.93;0.40;;;17.00;84.20;;;;;;5034478;28;20485;-68
2021/06/20 06:51:47;;;;;;;0.63;0.55;;;17.00;84.00;;;;;;5032246;28;20478;-68
2021/06/20 06:54:16;;;;;;;0.40;0.40;;;17.00;84.50;;;;;;5034520;28;20180;-68
2021/06/20 06:56:43;;;;;;;0.73;0.50;;;17.00;83.90;;;;;;5034852;28;20042;-68
2021/06/20 06:59:10;;;;;;;0.55;0.55;;;17.00;84.40;;;;;;5033255;28;20408;-68
2021/06/20 07:01:36;;;;;;;1.40;0.60;;;17.10;84.40;;;;;;5033099;28;20545;-68
2021/06/20 07:04:03;;;;;;;0.70;0.43;;;17.10;83.80;;;;;;5028812;28;20089;-68
2021/06/20 07:06:29;;;;;;;0.70;0.40;;;17.00;83.90;;;;;;5017396;28;20401;-68
2021/06/20 07:08:56;;;;;;;0.63;0.60;;;17.00;84.50;;;;;;5018187;28;20050;-68
2021/06/20 07:11:22;;;;;;;1.05;0.60;;;17.10;84.10;;;;;;5014462;28;20049;-68
2021/06/20 07:13:49;;;;;;;1.35;0.38;;;17.10;83.70;;;;;;5020763;28;20133;-68
2021/06/20 07:16:15;;;;;;;1.10;0.70;;;17.10;83.70;;;;;;5033599;28;20049;-74
2021/06/20 07:18:41;;;;;;;0.85;0.60;;;17.10;83.50;;;;;;5013557;28;20133;-68
2021/06/20 07:21:08;;;;;;;0.50;0.40;;;17.20;83.80;;;;;;5021265;28;20050;-68
2021/06/20 07:23:35;;;;;;;0.70;0.47;;;17.20;83.50;;;;;;5025372;28;20121;-68
2021/06/20 07:26:02;;;;;;;0.30;0.30;;;17.20;83.00;;;;;;5034966;28;20176;-68
2021/06/20 07:28:28;;;;;;;0.90;0.40;;;17.30;82.90;;;;;;5013119;28;20045;-68
2021/06/20 07:30:55;;;;;;;1.23;0.60;;;17.40;82.50;;;;;;5033605;28;20049;-68
2021/06/20 07:33:22;;;;;;;0.40;0.30;;;17.60;82.20;;;;;;5031910;28;20478;-68
2021/06/20 07:35:51;;;;;;;0.55;0.40;;;17.80;82.10;;;;;;5019103;28;20161;-68
2021/06/20 07:38:19;;;;;;;0.95;0.55;;;17.90;80.80;;;;;;5012769;28;20188;-69
2021/06/20 07:40:45;;;;;;;0.52;0.52;;;17.80;80.00;;;;;;5032352;28;20046;-68
2021/06/20 07:43:12;;;;;;;0.60;0.60;;;17.80;80.20;;;;;;5014200;28;20042;-68
2021/06/20 07:45:40;;;;;;;0.82;0.60;;;17.70;80.30;;;;;;5022624;28;20042;-68
2021/06/20 07:48:07;;;;;;;0.38;0.38;;;17.60;80.60;;;;;;5012124;28;20125;-67
2021/06/20 07:50:34;;;;;;;0.88;0.50;;;17.60;81.00;;;;;;5011470;28;20176;-67
2021/06/20 07:53:01;;;;;;;0.40;0.40;;;17.60;81.50;;;;;;5021215;28;20129;-68
2021/06/20 07:55:27;;;;;;;0.45;0.43;;;17.50;81.40;;;;;;5014180;28;20053;-68
2021/06/20 07:57:54;;;;;;;0.30;0.30;;;17.50;81.70;;;;;;5012974;28;20099;-69
2021/06/20 08:00:21;;;;;;;1.45;0.80;;;17.50;82.20;;;;;;5020197;28;20414;-69
2021/06/20 08:02:48;;;;;;;0.55;0.50;;;17.60;82.10;;;;;;5015171;28;20156;-70
2021/06/20 08:05:16;;;;;;;0.35;0.35;;;17.60;82.00;;;;;;5013507;28;20116;-69
2021/06/20 08:07:42;;;;;;;1.05;0.60;;;17.60;81.70;;;;;;5014145;28;20125;-68
2021/06/20 08:10:09;;;;;;;1.10;0.80;;;17.60;81.40;;;;;;5016588;28;20177;-69
2021/06/20 08:12:35;;;;;;;0.35;0.35;;;17.50;81.50;;;;;;5021199;28;20045;-69
2021/06/20 08:15:02;;;;;;;0.30;0.30;;;17.50;82.00;;;;;;5015570;28;20496;-69
2021/06/20 08:17:28;;;;;;;0.70;0.50;;;17.50;81.90;;;;;;5018361;28;20501;-70
2021/06/20 08:19:55;;;;;;;0.68;0.43;;;17.50;81.80;;;;;;5013143;28;20049;-70
2021/06/20 08:22:21;;;;;;;0.80;0.55;;;17.60;81.70;;;;;;5024731;28;20060;-69
2021/06/20 08:24:49;;;;;;;0.40;0.40;;;17.50;82.90;;;;;;5018365;28;20041;-69
2021/06/20 08:27:16;;;;;;;0.90;0.60;;;17.50;82.20;;;;;;5015845;28;20455;-68
2021/06/20 08:29:42;;;;;;;0.43;0.35;;;17.60;82.10;;;;;;5019653;28;20045;-68
2021/06/20 08:32:09;;;;;;;0.70;0.50;;;17.60;82.10;;;;;;5037609;28;20131;-69
2021/06/20 08:34:35;;;;;;;0.70;0.30;;;17.70;82.10;;;;;;5041025;28;20124;-69
2021/06/20 08:37:02;;;;;;;0.93;0.40;;;17.80;82.00;;;;;;5015188;28;20535;-68
2021/06/20 08:39:29;;;;;;;0.40;0.30;;;17.80;82.00;;;;;;5012779;28;20403;-68
2021/06/20 08:41:55;;;;;;;0.77;0.50;;;17.90;81.90;;;;;;5023370;28;20129;-68
2021/06/20 08:44:31;;;;;;;0.52;0.30;;;18.00;81.50;;;;;;5038458;28;20129;-69
2021/06/20 08:46:59;;;;;;;0.60;0.43;;;18.00;81.20;;;;;;5014421;28;20086;-69
2021/06/20 08:49:27;;;;;;;0.43;0.25;;;18.00;81.20;;;;;;5012147;28;20077;-69
2021/06/20 08:51:55;;;;;;;0.30;0.30;;;18.00;81.50;;;;;;5015521;28;20065;-69
2021/06/20 08:54:22;;;;;;;0.57;0.40;;;18.10;81.80;;;;;;5012020;28;20124;-69
2021/06/20 08:56:50;;;;;;;0.80;0.40;;;18.30;81.60;;;;;;5031810;28;20041;-69
2021/06/20 08:59:21;;;;;;;0.75;0.70;;;18.40;80.20;;;;;;5044224;28;20053;-69
2021/06/20 09:01:48;;;;;;;0.52;0.50;;;18.30;79.90;;;;;;5037490;28;20471;-69
2021/06/20 09:04:27;;;;;;;0.50;0.40;;;18.30;80.30;;;;;;5039054;28;20048;-70
2021/06/20 09:06:54;;;;;;;0.40;0.40;;;18.30;80.20;;;;;;5037341;28;20112;-69
2021/06/20 09:09:29;;;;;;;0.35;0.32;;;18.30;80.00;;;;;;5037955;28;20045;-70
2021/06/20 09:12:12;;;;;;;0.75;0.60;;;18.40;79.70;;;;;;5041318;28;20056;-69
2021/06/20 09:14:47;;;;;;;0.40;0.40;;;18.50;79.50;;;;;;5042389;28;20084;-69
2021/06/20 09:17:27;;;;;;;0.40;0.40;;;18.50;78.70;;;;;;5040385;28;20616;-69
2021/06/20 09:19:57;;;;;;;0.93;0.43;;;18.40;79.30;;;;;;5049216;28;20045;-70
2021/06/20 09:22:24;;;;;;;0.70;0.30;;;18.40;79.70;;;;;;5038837;28;20407;-70
2021/06/20 09:24:59;;;;;;;0.32;0.32;;;18.50;79.90;;;;;;5050111;28;20187;-70
2021/06/20 09:27:26;;;;;;;0.68;0.50;;;18.50;79.20;;;;;;5021842;28;20509;-69
2021/06/20 09:29:52;;;;;;;0.75;0.20;;;18.50;78.70;;;;;;5045858;28;20628;-68
2021/06/20 09:32:18;;;;;;;0.70;0.47;;;18.40;78.60;;;;;;5033227;28;20111;-69
2021/06/20 09:34:48;;;;;;;0.50;0.50;;;18.40;79.10;;;;;;5037180;28;20157;-69
2021/06/20 09:37:20;;;;;;;0.47;0.47;;;18.40;79.70;;;;;;5035099;28;20436;-69
2021/06/20 09:39:47;;;;;;;0.40;0.40;;;18.50;79.80;;;;;;5033774;28;20050;-69
2021/06/20 09:42:15;;;;;;;1.48;0.63;;;18.40;79.70;;;;;;5034573;28;20171;-70
2021/06/20 09:44:44;;;;;;;0.73;0.50;;;18.50;79.80;;;;;;5035918;28;20048;-70
2021/06/20 09:47:13;;;;;;;0.55;0.45;;;18.50;79.50;;;;;;5033898;28;20128;-70
2021/06/20 09:49:40;;;;;;;0.60;0.40;;;18.50;79.20;;;;;;5034223;28;20056;-70
2021/06/20 09:52:11;;;;;;;0.43;0.30;;;18.50;79.20;;;;;;5036957;28;20084;-70
2021/06/20 09:54:43;;;;;;;0.50;0.40;;;18.50;78.90;;;;;;5034292;28;20056;-69
2021/06/20 09:57:16;;;;;;;0.43;0.32;;;18.50;78.20;;;;;;5047171;28;20056;-69
2021/06/20 09:59:57;;;;;;;0.57;0.50;;;18.50;79.70;;;;;;5047793;28;20095;-69
2021/06/20 10:02:28;;;;;;;0.32;0.30;;;18.50;79.00;;;;;;5034143;28;20093;-70
2021/06/20 10:04:56;;;;;;;0.73;0.40;;;18.50;79.20;;;;;;5047140;28;20429;-69
2021/06/20 10:07:27;;;;;;;0.50;0.40;;;18.50;79.30;;;;;;5038509;28;20695;-69
2021/06/20 10:09:54;;;;;;;0.40;0.40;;;18.50;78.50;;;;;;5038654;28;20493;-69
2021/06/20 10:12:22;;;;;;;0.63;0.50;;;18.60;78.30;;;;;;5039891;28;20041;-70
2021/06/20 10:14:51;;;;;;;0.30;0.30;;;18.60;78.90;;;;;;5034395;28;20429;-70
2021/06/20 10:17:33;;;;;;;1.25;0.60;;;18.60;79.00;;;;;;5034390;28;20052;-69
2021/06/20 10:20:05;;;;;;;0.30;0.30;;;18.70;78.80;;;;;;5025712;28;20478;-70
2021/06/20 10:22:36;;;;;;;0.25;0.25;;;18.70;79.00;;;;;;5034693;28;20048;-70
2021/06/20 10:25:05;;;;;;;0.40;0.40;;;18.90;78.40;;;;;;5034629;28;20464;-70
2021/06/20 10:27:45;;;;;;;0.55;0.40;;;19.00;77.20;;;;;;5033293;28;20136;-70
2021/06/20 10:30:17;;;;;;;0.30;0.30;;;19.10;75.70;;;;;;5042695;28;20155;-70
2021/06/20 10:32:46;;;;;;;0.35;0.35;;;19.10;74.90;;;;;;5035061;28;20053;-70
2021/06/20 10:35:21;;;;;;;0.30;0.30;;;19.10;76.50;;;;;;5043025;28;20053;-70
2021/06/20 10:37:50;;;;;;;0.38;0.28;;;19.10;75.70;;;;;;5039645;28;20132;-70
2021/06/20 10:40:29;;;;;;;0.35;0.30;;;19.30;75.10;;;;;;5036420;28;20293;-70
2021/06/20 10:42:57;;;;;;;0.20;0.20;;;19.40;74.60;;;;;;5038304;28;20120;-70
2021/06/20 10:45:37;;;;;;;0.40;0.30;;;19.50;74.70;;;;;;5052540;28;20084;-69
2021/06/20 10:48:23;;;;;;;0.32;0.32;;;19.60;74.30;;;;;;5038192;28;20066;-70
2021/06/20 10:50:52;;;;;;;0.60;0.45;;;19.80;74.20;;;;;;5041455;28;20387;-70
2021/06/20 10:53:20;;;;;;;0.32;0.32;;;19.90;74.10;;;;;;5036597;28;20685;-69
2021/06/20 10:55:51;;;;;;;0.50;0.30;;;20.10;72.70;;;;;;5033757;28;20529;-71
2021/06/20 10:58:19;;;;;;;0.10;0.10;;;20.30;71.50;;;;;;5035455;28;20045;-70
2021/06/20 11:00:47;;;;;;;0.40;0.40;;;20.40;70.20;;;;;;5035490;28;20211;-70
2021/06/20 11:03:24;;;;;;;0.30;0.30;;;20.50;70.30;;;;;;5033904;28;20128;-70
2021/06/20 11:05:52;;;;;;;0.22;0.20;;;20.80;70.20;;;;;;5033422;28;20054;-71
2021/06/20 11:08:42;;;;;;;0.20;0.20;;;21.00;70.40;;;;;;5033255;28;20041;-70
2021/06/20 11:11:10;;;;;;;0.10;0.10;;;21.30;67.60;;;;;;5027007;28;20045;-71
2021/06/20 11:13:38;;;;;;;0.40;0.40;;;21.40;66.40;;;;;;5031025;28;20052;-72
2021/06/20 11:16:12;;;;;;;0.43;0.40;;;21.40;67.80;;;;;;5047870;28;20128;-74
2021/06/20 11:18:43;;;;;;;0.20;0.20;;;21.40;66.70;;;;;;5043722;28;20052;-72
2021/06/20 11:21:09;;;;;;;;;;;21.40;64.80;;;;;;5031088;28;20163;-72
2021/06/20 11:23:40;;;;;;;0.20;0.20;;;21.20;64.00;;;;;;5044638;28;20352;-70
2021/06/20 11:26:07;;;;;;;0.30;0.20;;;21.20;64.50;;;;;;5048431;28;20146;-69
2021/06/20 11:28:33;;;;;;;0.20;0.20;;;21.20;66.20;;;;;;5043993;28;20390;-67
2021/06/20 11:31:17;;;;;;;0.28;0.28;;;21.20;67.30;;;;;;5047532;28;20073;-69
2021/06/20 11:33:55;;;;;;;0.28;0.28;;;21.30;65.60;;;;;;5032126;28;20108;-70
2021/06/20 11:36:25;;;;;;;0.52;0.20;;;21.30;64.90;;;;;;5021848;28;20169;-68
2021/06/20 11:38:51;;;;;;;0.40;0.30;;;21.20;65.90;;;;;;5044689;28;20049;-68
2021/06/20 11:41:24;;;;;;;0.38;0.22;;;21.20;65.90;;;;;;5045433;28;20616;-69
2021/06/20 11:44:03;;;;;;;0.20;0.20;;;21.40;66.20;;;;;;5043943;28;20092;-69
2021/06/20 11:46:33;;;;;;;0.08;0.08;;;21.40;65.80;;;;;;5031793;28;20064;-68
2021/06/20 11:49:01;;;;;;;0.20;0.20;;;21.50;66.20;;;;;;5036025;28;20056;-68
2021/06/20 11:51:49;;;;;;;0.15;0.10;;;21.60;65.90;;;;;;5036727;28;20056;-68
2021/06/20 11:54:20;;;;;;;0.17;0.17;;;21.70;66.00;;;;;;4951235;29;20135;-68
2021/06/20 11:56:53;;;;;;;0.13;0.10;;;21.70;63.00;;;;;;4935189;29;20143;-68
2021/06/20 11:59:46;;;;;;;0.17;0.17;;;21.50;63.50;;;;;;4950656;28;20074;-69
2021/06/20 12:02:13;;;;;;;0.52;0.20;;;21.50;64.70;;;;;;4948729;29;20122;-68
2021/06/20 12:04:45;;;;;;;0.15;0.15;;;21.30;63.80;;;;;;4950453;29;20131;-69
2021/06/20 12:07:11;;;;;;;0.63;0.40;;;21.10;65.40;;;;;;4951003;28;20053;-69
2021/06/20 12:09:39;;;;;;;0.15;0.15;;;21.00;64.50;;;;;;4950589;28;20047;-69
2021/06/20 12:12:10;;;;;;;0.20;0.20;;;21.00;65.40;;;;;;4950986;29;20083;-69
2021/06/20 12:14:37;;;;;;;0.10;0.10;;;21.00;65.80;;;;;;4950647;29;20142;-69
2021/06/20 12:17:05;;;;;;;0.20;0.20;;;21.00;65.10;;;;;;4950571;29;20059;-69
2021/06/20 12:19:34;;;;;;;0.30;0.17;;;21.00;65.20;;;;;;4951262;29;20055;-69
2021/06/20 12:22:19;;;;;;;0.28;0.20;;;21.00;64.10;;;;;;4951595;29;20051;-72
2021/06/20 12:24:48;;;;;;;0.40;0.30;;;21.10;65.50;;;;;;4949124;29;20077;-70
2021/06/20 12:27:27;;;;;;;0.20;0.20;;;21.00;64.10;;;;;;4950958;29;20134;-72
2021/06/20 12:29:53;;;;;;;0.20;0.10;;;21.00;64.80;;;;;;4951179;29;20637;-70
2021/06/20 12:32:20;;;;;;;0.25;0.13;;;21.00;65.60;;;;;;5002459;28;20046;-72
2021/06/20 12:34:52;;;;;;;0.80;0.10;;;21.00;65.80;;;;;;5019222;28;20068;-65
2021/06/20 12:37:21;;;;;;;0.15;0.15;;;21.00;65.10;;;;;;5011565;28;20189;-65
2021/06/20 12:39:48;;;;;;;0.20;0.20;;;21.00;65.40;;;;;;5011708;28;20049;-65
2021/06/20 12:42:15;;;;;;;0.10;0.10;;;21.00;65.10;;;;;;5020555;28;20061;-65
2021/06/20 12:44:46;;;;;;;0.10;0.10;;;20.90;66.00;;;;;;5021311;28;20466;-66
2021/06/20 12:47:13;;;;;;;0.30;0.20;;;20.90;65.70;;;;;;5012260;28;20549;-65
2021/06/20 12:49:52;;;;;;;0.10;0.10;;;20.90;66.00;;;;;;5011942;28;20056;-65
2021/06/20 12:52:26;;;;;;;0.10;0.10;;;20.80;65.50;;;;;;4987712;28;20129;-64
2021/06/20 12:54:53;;;;;;;0.20;0.20;;;20.70;66.50;;;;;;5020677;28;20042;-65
2021/06/20 12:57:29;;;;;;;0.28;0.20;;;20.70;66.80;;;;;;5018357;28;20125;-66